sensor_id;sensor_type;location;lat;lon;timestamp;temperature;humidity
39493;DHT22;25176;51.060;3.720;2024-03-08T00:01:47;7.00;98.90
39493;DHT22;25176;51.060;3.720;2024-03-08T00:04:13;6.90;98.90
39493;DHT22;25176;51.060;3.720;2024-03-08T00:06:40;6.80;99.20
39493;DHT22;25176;51.060;3.720;2024-03-08T00:09:06;6.90;99.20
39493;DHT22;25176;51.060;3.720;2024-03-08T00:11:33;6.90;98.80
39493;DHT22;25176;51.060;3.720;2024-03-08T00:13:59;6.90;98.90
39493;DHT22;25176;51.060;3.720;2024-03-08T00:16:24;6.80;98.80
39493;DHT22;25176;51.060;3.720;2024-03-08T00:18:50;6.80;98.80
39493;DHT22;25176;51.060;3.720;2024-03-08T00:21:15;6.70;99.10
39493;DHT22;25176;51.060;3.720;2024-03-08T00:23:41;6.80;99.00
39493;DHT22;25176;51.060;3.720;2024-03-08T00:26:06;6.70;98.90
39493;DHT22;25176;51.060;3.720;2024-03-08T00:28:32;6.70;99.30
39493;DHT22;25176;51.060;3.720;2024-03-08T00:30:59;6.60;99.40
39493;DHT22;25176;51.060;3.720;2024-03-08T00:33:25;6.60;99.40
39493;DHT22;25176;51.060;3.720;2024-03-08T00:35:51;6.70;99.40
39493;DHT22;25176;51.060;3.720;2024-03-08T00:38:16;6.60;99.30
39493;DHT22;25176;51.060;3.720;2024-03-08T00:40:44;6.50;99.60
39493;DHT22;25176;51.060;3.720;2024-03-08T00:43:09;6.50;99.80
39493;DHT22;25176;51.060;3.720;2024-03-08T00:45:35;6.50;99.90
39493;DHT22;25176;51.060;3.720;2024-03-08T00:48:02;6.50;99.90
39493;DHT22;25176;51.060;3.720;2024-03-08T00:50:28;6.50;99.90
39493;DHT22;25176;51.060;3.720;2024-03-08T00:52:53;6.60;99.90
39493;DHT22;25176;51.060;3.720;2024-03-08T00:55:19;6.50;99.90
39493;DHT22;25176;51.060;3.720;2024-03-08T00:57:44;6.60;99.90
39493;DHT22;25176;51.060;3.720;2024-03-08T01:00:10;6.60;99.90
39493;DHT22;25176;51.060;3.720;2024-03-08T01:02:37;6.60;99.90
39493;DHT22;25176;51.060;3.720;2024-03-08T01:05:03;6.50;99.90
39493;DHT22;25176;51.060;3.720;2024-03-08T01:07:31;6.50;99.90
39493;DHT22;25176;51.060;3.720;2024-03-08T01:09:56;6.40;99.90
39493;DHT22;25176;51.060;3.720;2024-03-08T01:12:22;6.40;99.90
39493;DHT22;25176;51.060;3.720;2024-03-08T01:14:48;6.50;99.90
39493;DHT22;25176;51.060;3.720;2024-03-08T01:17:13;6.60;99.90
39493;DHT22;25176;51.060;3.720;2024-03-08T01:19:39;6.40;99.90
39493;DHT22;25176;51.060;3.720;2024-03-08T01:22:04;6.30;99.90
39493;DHT22;25176;51.060;3.720;2024-03-08T01:24:30;6.20;99.90
39493;DHT22;25176;51.060;3.720;2024-03-08T01:26:55;6.10;99.90
39493;DHT22;25176;51.060;3.720;2024-03-08T01:29:21;6.10;99.90
39493;DHT22;25176;51.060;3.720;2024-03-08T01:31:46;6.10;99.90
39493;DHT22;25176;51.060;3.720;2024-03-08T01:34:12;6.10;99.90
39493;DHT22;25176;51.060;3.720;2024-03-08T01:36:37;6.20;99.90
39493;DHT22;25176;51.060;3.720;2024-03-08T01:39:03;6.10;99.90
39493;DHT22;25176;51.060;3.720;2024-03-08T01:41:35;6.10;99.90
39493;DHT22;25176;51.060;3.720;2024-03-08T01:44:01;6.10;99.90
39493;DHT22;25176;51.060;3.720;2024-03-08T01:46:27;6.20;99.90
39493;DHT22;25176;51.060;3.720;2024-03-08T01:48:54;6.10;99.90
39493;DHT22;25176;51.060;3.720;2024-03-08T01:51:20;6.10;99.90
39493;DHT22;25176;51.060;3.720;2024-03-08T01:53:46;6.10;99.90
39493;DHT22;25176;51.060;3.720;2024-03-08T01:56:11;6.00;99.90
39493;DHT22;25176;51.060;3.720;2024-03-08T01:58:40;6.00;99.90
39493;DHT22;25176;51.060;3.720;2024-03-08T02:01:07;5.80;99.90
39493;DHT22;25176;51.060;3.720;2024-03-08T02:03:32;5.90;99.90
39493;DHT22;25176;51.060;3.720;2024-03-08T02:05:58;5.90;99.90
39493;DHT22;25176;51.060;3.720;2024-03-08T02:08:26;5.80;99.90
39493;DHT22;25176;51.060;3.720;2024-03-08T02:10:51;6.00;99.90
39493;DHT22;25176;51.060;3.720;2024-03-08T02:13:17;6.00;99.90
39493;DHT22;25176;51.060;3.720;2024-03-08T02:16:04;6.00;99.90
39493;DHT22;25176;51.060;3.720;2024-03-08T02:18:30;5.90;99.90
39493;DHT22;25176;51.060;3.720;2024-03-08T02:20:56;5.90;99.90
39493;DHT22;25176;51.060;3.720;2024-03-08T02:23:22;5.90;99.90
39493;DHT22;25176;51.060;3.720;2024-03-08T02:25:49;5.80;99.90
39493;DHT22;25176;51.060;3.720;2024-03-08T02:28:14;5.90;99.90
39493;DHT22;25176;51.060;3.720;2024-03-08T02:30:40;6.00;99.90
39493;DHT22;25176;51.060;3.720;2024-03-08T02:33:05;5.90;99.90
39493;DHT22;25176;51.060;3.720;2024-03-08T02:35:31;5.70;99.90
39493;DHT22;25176;51.060;3.720;2024-03-08T02:37:57;5.70;99.90
39493;DHT22;25176;51.060;3.720;2024-03-08T02:40:23;5.80;99.90
39493;DHT22;25176;51.060;3.720;2024-03-08T02:42:49;5.80;99.90
39493;DHT22;25176;51.060;3.720;2024-03-08T02:45:14;5.80;99.90
39493;DHT22;25176;51.060;3.720;2024-03-08T02:47:40;5.70;99.90
39493;DHT22;25176;51.060;3.720;2024-03-08T02:50:06;5.80;99.90
39493;DHT22;25176;51.060;3.720;2024-03-08T02:52:33;5.90;99.90
39493;DHT22;25176;51.060;3.720;2024-03-08T02:54:59;5.90;99.90
39493;DHT22;25176;51.060;3.720;2024-03-08T02:57:24;5.90;99.90
39493;DHT22;25176;51.060;3.720;2024-03-08T02:59:50;6.00;99.90
39493;DHT22;25176;51.060;3.720;2024-03-08T03:02:15;6.00;99.60
39493;DHT22;25176;51.060;3.720;2024-03-08T03:04:41;5.90;99.70
39493;DHT22;25176;51.060;3.720;2024-03-08T03:07:07;6.00;99.60
39493;DHT22;25176;51.060;3.720;2024-03-08T03:09:33;5.90;99.70
39493;DHT22;25176;51.060;3.720;2024-03-08T03:11:58;5.90;99.80
39493;DHT22;25176;51.060;3.720;2024-03-08T03:14:24;6.00;99.50
39493;DHT22;25176;51.060;3.720;2024-03-08T03:16:49;5.90;99.70
39493;DHT22;25176;51.060;3.720;2024-03-08T03:19:15;5.70;99.60
39493;DHT22;25176;51.060;3.720;2024-03-08T03:21:40;5.70;99.90
39493;DHT22;25176;51.060;3.720;2024-03-08T03:24:08;5.70;99.70
39493;DHT22;25176;51.060;3.720;2024-03-08T03:26:38;5.70;99.30
39493;DHT22;25176;51.060;3.720;2024-03-08T03:29:07;5.70;99.60
39493;DHT22;25176;51.060;3.720;2024-03-08T03:31:34;5.60;99.50
39493;DHT22;25176;51.060;3.720;2024-03-08T03:34:00;5.60;99.30
39493;DHT22;25176;51.060;3.720;2024-03-08T03:36:28;5.50;99.50
39493;DHT22;25176;51.060;3.720;2024-03-08T03:38:54;5.60;99.50
39493;DHT22;25176;51.060;3.720;2024-03-08T03:41:41;5.50;99.30
39493;DHT22;25176;51.060;3.720;2024-03-08T03:44:07;5.60;99.50
39493;DHT22;25176;51.060;3.720;2024-03-08T03:46:33;5.70;99.30
39493;DHT22;25176;51.060;3.720;2024-03-08T03:48:58;5.60;98.90
39493;DHT22;25176;51.060;3.720;2024-03-08T03:51:24;5.50;99.10
39493;DHT22;25176;51.060;3.720;2024-03-08T03:53:50;5.50;98.90
39493;DHT22;25176;51.060;3.720;2024-03-08T03:56:16;5.40;99.00
39493;DHT22;25176;51.060;3.720;2024-03-08T03:58:41;5.30;99.30
39493;DHT22;25176;51.060;3.720;2024-03-08T04:01:08;5.30;99.40
39493;DHT22;25176;51.060;3.720;2024-03-08T04:03:35;5.40;99.20
39493;DHT22;25176;51.060;3.720;2024-03-08T04:06:00;5.30;99.00
39493;DHT22;25176;51.060;3.720;2024-03-08T04:08:27;5.30;99.30
39493;DHT22;25176;51.060;3.720;2024-03-08T04:10:52;5.40;99.50
39493;DHT22;25176;51.060;3.720;2024-03-08T04:13:18;5.30;98.70
39493;DHT22;25176;51.060;3.720;2024-03-08T04:15:45;5.30;98.90
39493;DHT22;25176;51.060;3.720;2024-03-08T04:18:13;5.10;99.40
39493;DHT22;25176;51.060;3.720;2024-03-08T04:20:39;5.10;99.10
39493;DHT22;25176;51.060;3.720;2024-03-08T04:23:05;4.90;99.20
39493;DHT22;25176;51.060;3.720;2024-03-08T04:25:31;4.90;99.30
39493;DHT22;25176;51.060;3.720;2024-03-08T04:27:56;4.80;99.20
39493;DHT22;25176;51.060;3.720;2024-03-08T04:30:22;4.80;99.60
39493;DHT22;25176;51.060;3.720;2024-03-08T04:32:47;4.90;99.30
39493;DHT22;25176;51.060;3.720;2024-03-08T04:35:13;4.80;99.30
39493;DHT22;25176;51.060;3.720;2024-03-08T04:37:40;4.80;99.40
39493;DHT22;25176;51.060;3.720;2024-03-08T04:40:05;4.80;99.70
39493;DHT22;25176;51.060;3.720;2024-03-08T04:42:31;4.80;99.30
39493;DHT22;25176;51.060;3.720;2024-03-08T04:44:58;4.80;99.50
39493;DHT22;25176;51.060;3.720;2024-03-08T04:47:23;4.70;99.20
39493;DHT22;25176;51.060;3.720;2024-03-08T04:49:49;4.80;99.30
39493;DHT22;25176;51.060;3.720;2024-03-08T04:52:15;4.70;99.40
39493;DHT22;25176;51.060;3.720;2024-03-08T04:54:41;4.70;99.40
39493;DHT22;25176;51.060;3.720;2024-03-08T04:57:07;4.70;99.40
39493;DHT22;25176;51.060;3.720;2024-03-08T04:59:33;4.60;99.40
39493;DHT22;25176;51.060;3.720;2024-03-08T05:01:58;4.60;99.50
39493;DHT22;25176;51.060;3.720;2024-03-08T05:04:24;4.40;99.50
39493;DHT22;25176;51.060;3.720;2024-03-08T05:06:49;4.60;99.50
39493;DHT22;25176;51.060;3.720;2024-03-08T05:09:15;4.60;99.80
39493;DHT22;25176;51.060;3.720;2024-03-08T05:11:41;4.70;99.50
39493;DHT22;25176;51.060;3.720;2024-03-08T05:14:07;4.70;99.20
39493;DHT22;25176;51.060;3.720;2024-03-08T05:16:33;4.60;99.40
39493;DHT22;25176;51.060;3.720;2024-03-08T05:18:59;4.70;99.20
39493;DHT22;25176;51.060;3.720;2024-03-08T05:21:25;4.70;99.40
39493;DHT22;25176;51.060;3.720;2024-03-08T05:23:50;4.60;99.20
39493;DHT22;25176;51.060;3.720;2024-03-08T05:26:16;4.50;99.40
39493;DHT22;25176;51.060;3.720;2024-03-08T05:28:42;4.50;99.60
39493;DHT22;25176;51.060;3.720;2024-03-08T05:31:07;4.40;99.70
39493;DHT22;25176;51.060;3.720;2024-03-08T05:33:33;4.50;99.50
39493;DHT22;25176;51.060;3.720;2024-03-08T05:36:00;4.50;99.40
39493;DHT22;25176;51.060;3.720;2024-03-08T05:38:27;4.50;99.50
39493;DHT22;25176;51.060;3.720;2024-03-08T05:40:53;4.50;99.30
39493;DHT22;25176;51.060;3.720;2024-03-08T05:43:19;4.40;99.60
39493;DHT22;25176;51.060;3.720;2024-03-08T05:45:48;4.40;99.60
39493;DHT22;25176;51.060;3.720;2024-03-08T05:48:13;4.40;99.80
39493;DHT22;25176;51.060;3.720;2024-03-08T05:50:39;4.40;99.80
39493;DHT22;25176;51.060;3.720;2024-03-08T05:53:04;4.30;99.70
39493;DHT22;25176;51.060;3.720;2024-03-08T05:55:33;4.40;99.70
39493;DHT22;25176;51.060;3.720;2024-03-08T05:58:01;4.30;99.70
39493;DHT22;25176;51.060;3.720;2024-03-08T06:00:27;4.30;99.90
39493;DHT22;25176;51.060;3.720;2024-03-08T06:02:52;4.30;99.80
39493;DHT22;25176;51.060;3.720;2024-03-08T06:05:17;4.20;99.90
39493;DHT22;25176;51.060;3.720;2024-03-08T06:07:43;4.20;99.90
39493;DHT22;25176;51.060;3.720;2024-03-08T06:10:09;4.30;99.80
39493;DHT22;25176;51.060;3.720;2024-03-08T06:12:36;4.20;99.90
39493;DHT22;25176;51.060;3.720;2024-03-08T06:15:06;4.20;99.90
39493;DHT22;25176;51.060;3.720;2024-03-08T06:17:31;4.20;99.90
39493;DHT22;25176;51.060;3.720;2024-03-08T06:19:57;4.20;99.90
39493;DHT22;25176;51.060;3.720;2024-03-08T06:22:22;4.20;99.90
39493;DHT22;25176;51.060;3.720;2024-03-08T06:24:48;4.10;99.90
39493;DHT22;25176;51.060;3.720;2024-03-08T06:27:13;4.20;99.90
39493;DHT22;25176;51.060;3.720;2024-03-08T06:29:39;4.20;99.80
39493;DHT22;25176;51.060;3.720;2024-03-08T06:32:04;4.30;99.90
39493;DHT22;25176;51.060;3.720;2024-03-08T06:34:32;4.30;99.70
39493;DHT22;25176;51.060;3.720;2024-03-08T06:36:58;4.20;99.90
39493;DHT22;25176;51.060;3.720;2024-03-08T06:39:26;4.20;99.90
39493;DHT22;25176;51.060;3.720;2024-03-08T06:41:51;4.20;99.90
39493;DHT22;25176;51.060;3.720;2024-03-08T06:44:17;4.20;99.90
39493;DHT22;25176;51.060;3.720;2024-03-08T06:46:42;4.10;99.90
39493;DHT22;25176;51.060;3.720;2024-03-08T06:49:08;4.20;99.90
39493;DHT22;25176;51.060;3.720;2024-03-08T06:51:36;4.30;99.80
39493;DHT22;25176;51.060;3.720;2024-03-08T06:54:01;4.20;99.90
39493;DHT22;25176;51.060;3.720;2024-03-08T06:56:27;4.30;99.80
39493;DHT22;25176;51.060;3.720;2024-03-08T06:58:52;4.20;99.90
39493;DHT22;25176;51.060;3.720;2024-03-08T07:01:18;4.20;99.70
39493;DHT22;25176;51.060;3.720;2024-03-08T07:03:44;4.20;99.90
39493;DHT22;25176;51.060;3.720;2024-03-08T07:06:10;4.40;99.90
39493;DHT22;25176;51.060;3.720;2024-03-08T07:08:36;4.50;99.50
39493;DHT22;25176;51.060;3.720;2024-03-08T07:11:02;4.50;99.90
39493;DHT22;25176;51.060;3.720;2024-03-08T07:13:28;4.50;99.70
39493;DHT22;25176;51.060;3.720;2024-03-08T07:15:54;4.70;99.60
39493;DHT22;25176;51.060;3.720;2024-03-08T07:18:20;4.70;99.30
39493;DHT22;25176;51.060;3.720;2024-03-08T07:20:47;4.70;99.20
39493;DHT22;25176;51.060;3.720;2024-03-08T07:23:13;4.60;99.30
39493;DHT22;25176;51.060;3.720;2024-03-08T07:25:58;4.70;99.20
39493;DHT22;25176;51.060;3.720;2024-03-08T07:28:26;4.60;99.30
39493;DHT22;25176;51.060;3.720;2024-03-08T07:30:53;4.70;99.60
39493;DHT22;25176;51.060;3.720;2024-03-08T07:33:26;4.90;99.60
39493;DHT22;25176;51.060;3.720;2024-03-08T07:35:52;4.90;98.90
39493;DHT22;25176;51.060;3.720;2024-03-08T07:38:20;4.90;98.70
39493;DHT22;25176;51.060;3.720;2024-03-08T07:40:46;4.80;98.90
39493;DHT22;25176;51.060;3.720;2024-03-08T07:43:13;4.70;98.80
39493;DHT22;25176;51.060;3.720;2024-03-08T07:45:39;4.70;99.00
39493;DHT22;25176;51.060;3.720;2024-03-08T07:48:06;4.70;99.10
39493;DHT22;25176;51.060;3.720;2024-03-08T07:50:38;4.80;98.90
39493;DHT22;25176;51.060;3.720;2024-03-08T07:53:07;4.90;98.90
39493;DHT22;25176;51.060;3.720;2024-03-08T07:55:33;5.00;99.10
39493;DHT22;25176;51.060;3.720;2024-03-08T07:57:59;5.00;98.80
39493;DHT22;25176;51.060;3.720;2024-03-08T08:00:25;5.10;98.70
39493;DHT22;25176;51.060;3.720;2024-03-08T08:02:53;5.10;98.60
39493;DHT22;25176;51.060;3.720;2024-03-08T08:05:18;5.10;98.60
39493;DHT22;25176;51.060;3.720;2024-03-08T08:07:44;5.20;98.80
39493;DHT22;25176;51.060;3.720;2024-03-08T08:10:14;5.40;98.30
39493;DHT22;25176;51.060;3.720;2024-03-08T08:12:58;5.50;98.10
39493;DHT22;25176;51.060;3.720;2024-03-08T08:15:24;5.70;97.90
39493;DHT22;25176;51.060;3.720;2024-03-08T08:17:49;5.70;97.60
39493;DHT22;25176;51.060;3.720;2024-03-08T08:20:15;5.70;97.60
39493;DHT22;25176;51.060;3.720;2024-03-08T08:22:41;5.80;97.90
39493;DHT22;25176;51.060;3.720;2024-03-08T08:25:08;5.90;97.40
39493;DHT22;25176;51.060;3.720;2024-03-08T08:27:34;6.00;97.30
39493;DHT22;25176;51.060;3.720;2024-03-08T08:30:02;6.00;97.40
39493;DHT22;25176;51.060;3.720;2024-03-08T08:32:35;6.30;97.20
39493;DHT22;25176;51.060;3.720;2024-03-08T08:35:02;7.20;96.20
39493;DHT22;25176;51.060;3.720;2024-03-08T08:37:27;8.70;94.40
39493;DHT22;25176;51.060;3.720;2024-03-08T08:39:54;10.70;92.60
39493;DHT22;25176;51.060;3.720;2024-03-08T08:42:19;12.00;89.70
39493;DHT22;25176;51.060;3.720;2024-03-08T08:44:45;12.80;87.10
39493;DHT22;25176;51.060;3.720;2024-03-08T08:47:11;12.90;86.80
39493;DHT22;25176;51.060;3.720;2024-03-08T08:49:38;12.00;86.80
39493;DHT22;25176;51.060;3.720;2024-03-08T08:52:04;12.50;88.00
39493;DHT22;25176;51.060;3.720;2024-03-08T08:54:30;13.50;84.10
39493;DHT22;25176;51.060;3.720;2024-03-08T08:56:56;12.70;84.50
39493;DHT22;25176;51.060;3.720;2024-03-08T08:59:22;11.70;85.80
39493;DHT22;25176;51.060;3.720;2024-03-08T09:01:50;13.50;84.10
39493;DHT22;25176;51.060;3.720;2024-03-08T09:04:19;14.70;81.60
39493;DHT22;25176;51.060;3.720;2024-03-08T09:06:45;13.60;79.50
39493;DHT22;25176;51.060;3.720;2024-03-08T09:09:11;14.50;80.90
39493;DHT22;25176;51.060;3.720;2024-03-08T09:11:39;17.20;74.10
39493;DHT22;25176;51.060;3.720;2024-03-08T09:14:08;16.00;75.00
39493;DHT22;25176;51.060;3.720;2024-03-08T09:16:34;14.60;77.20
39493;DHT22;25176;51.060;3.720;2024-03-08T09:19:00;15.10;75.40
39493;DHT22;25176;51.060;3.720;2024-03-08T09:21:25;14.20;79.10
39493;DHT22;25176;51.060;3.720;2024-03-08T09:23:52;15.80;75.00
39493;DHT22;25176;51.060;3.720;2024-03-08T09:26:18;13.90;77.80
39493;DHT22;25176;51.060;3.720;2024-03-08T09:28:44;15.20;75.60
39493;DHT22;25176;51.060;3.720;2024-03-08T09:31:11;15.30;74.70
39493;DHT22;25176;51.060;3.720;2024-03-08T09:33:37;16.00;75.40
39493;DHT22;25176;51.060;3.720;2024-03-08T09:36:05;17.30;73.40
39493;DHT22;25176;51.060;3.720;2024-03-08T09:38:31;16.70;69.50
39493;DHT22;25176;51.060;3.720;2024-03-08T09:40:56;15.00;73.20
39493;DHT22;25176;51.060;3.720;2024-03-08T09:43:22;14.30;75.40
39493;DHT22;25176;51.060;3.720;2024-03-08T09:45:49;14.70;75.50
39493;DHT22;25176;51.060;3.720;2024-03-08T09:48:16;16.00;73.50
39493;DHT22;25176;51.060;3.720;2024-03-08T09:50:44;15.60;71.60
39493;DHT22;25176;51.060;3.720;2024-03-08T09:53:11;15.60;72.10
39493;DHT22;25176;51.060;3.720;2024-03-08T09:55:37;15.40;71.90
39493;DHT22;25176;51.060;3.720;2024-03-08T09:58:06;14.70;72.90
39493;DHT22;25176;51.060;3.720;2024-03-08T10:00:49;13.50;74.60
39493;DHT22;25176;51.060;3.720;2024-03-08T10:03:15;14.40;75.50
39493;DHT22;25176;51.060;3.720;2024-03-08T10:05:41;15.00;72.50
39493;DHT22;25176;51.060;3.720;2024-03-08T10:08:07;15.30;72.60
39493;DHT22;25176;51.060;3.720;2024-03-08T10:10:35;15.20;72.90
39493;DHT22;25176;51.060;3.720;2024-03-08T10:13:01;14.50;72.10
39493;DHT22;25176;51.060;3.720;2024-03-08T10:15:27;13.90;74.70
39493;DHT22;25176;51.060;3.720;2024-03-08T10:17:58;14.00;74.60
39493;DHT22;25176;51.060;3.720;2024-03-08T10:20:24;13.70;75.20
39493;DHT22;25176;51.060;3.720;2024-03-08T10:22:49;13.70;74.90
39493;DHT22;25176;51.060;3.720;2024-03-08T10:25:17;14.20;74.80
39493;DHT22;25176;51.060;3.720;2024-03-08T10:27:43;14.50;73.10
39493;DHT22;25176;51.060;3.720;2024-03-08T10:30:16;13.50;74.50
39493;DHT22;25176;51.060;3.720;2024-03-08T10:32:47;12.40;77.00
39493;DHT22;25176;51.060;3.720;2024-03-08T10:35:13;11.60;79.10
39493;DHT22;25176;51.060;3.720;2024-03-08T10:37:45;11.50;79.10
39493;DHT22;25176;51.060;3.720;2024-03-08T10:40:17;11.20;81.00
39493;DHT22;25176;51.060;3.720;2024-03-08T10:42:47;11.00;81.10
39493;DHT22;25176;51.060;3.720;2024-03-08T10:45:35;10.50;82.80
39493;DHT22;25176;51.060;3.720;2024-03-08T10:50:29;10.10;83.50
39493;DHT22;25176;51.060;3.720;2024-03-08T10:52:55;10.00;84.40
39493;DHT22;25176;51.060;3.720;2024-03-08T10:55:22;10.00;84.40
39493;DHT22;25176;51.060;3.720;2024-03-08T10:57:48;10.00;84.70
39493;DHT22;25176;51.060;3.720;2024-03-08T11:00:19;10.20;84.80
39493;DHT22;25176;51.060;3.720;2024-03-08T11:02:52;9.90;84.90
39493;DHT22;25176;51.060;3.720;2024-03-08T11:05:38;10.00;84.90
39493;DHT22;25176;51.060;3.720;2024-03-08T11:08:22;9.90;85.00
39493;DHT22;25176;51.060;3.720;2024-03-08T11:10:49;9.70;85.80
39493;DHT22;25176;51.060;3.720;2024-03-08T11:13:40;9.70;86.30
39493;DHT22;25176;51.060;3.720;2024-03-08T11:16:09;10.00;85.40
39493;DHT22;25176;51.060;3.720;2024-03-08T11:18:36;10.10;85.40
39493;DHT22;25176;51.060;3.720;2024-03-08T11:21:03;10.20;85.30
39493;DHT22;25176;51.060;3.720;2024-03-08T11:23:32;10.10;84.50
39493;DHT22;25176;51.060;3.720;2024-03-08T11:25:59;9.90;85.30
39493;DHT22;25176;51.060;3.720;2024-03-08T11:28:25;9.90;85.40
39493;DHT22;25176;51.060;3.720;2024-03-08T11:33:24;10.00;85.00
39493;DHT22;25176;51.060;3.720;2024-03-08T11:35:52;10.10;85.80
39493;DHT22;25176;51.060;3.720;2024-03-08T11:38:18;10.20;85.30
39493;DHT22;25176;51.060;3.720;2024-03-08T11:40:47;10.20;85.40
39493;DHT22;25176;51.060;3.720;2024-03-08T11:43:15;10.30;85.30
39493;DHT22;25176;51.060;3.720;2024-03-08T11:45:41;10.40;85.10
39493;DHT22;25176;51.060;3.720;2024-03-08T11:48:07;10.50;85.50
39493;DHT22;25176;51.060;3.720;2024-03-08T11:50:35;10.40;85.10
39493;DHT22;25176;51.060;3.720;2024-03-08T11:53:04;10.40;85.10
39493;DHT22;25176;51.060;3.720;2024-03-08T11:55:33;10.40;85.40
39493;DHT22;25176;51.060;3.720;2024-03-08T11:58:01;10.30;85.10
39493;DHT22;25176;51.060;3.720;2024-03-08T12:00:27;10.20;85.50
39493;DHT22;25176;51.060;3.720;2024-03-08T12:03:05;10.30;85.30
39493;DHT22;25176;51.060;3.720;2024-03-08T12:05:32;10.40;85.40
39493;DHT22;25176;51.060;3.720;2024-03-08T12:07:59;10.40;85.60
39493;DHT22;25176;51.060;3.720;2024-03-08T12:10:24;10.30;85.10
39493;DHT22;25176;51.060;3.720;2024-03-08T12:12:54;10.20;84.90
39493;DHT22;25176;51.060;3.720;2024-03-08T12:15:20;10.40;85.90
39493;DHT22;25176;51.060;3.720;2024-03-08T12:17:47;10.50;85.60
39493;DHT22;25176;51.060;3.720;2024-03-08T12:20:17;10.70;84.80
39493;DHT22;25176;51.060;3.720;2024-03-08T12:22:43;10.50;85.00
39493;DHT22;25176;51.060;3.720;2024-03-08T12:25:09;10.50;85.30
39493;DHT22;25176;51.060;3.720;2024-03-08T12:27:36;10.70;85.80
39493;DHT22;25176;51.060;3.720;2024-03-08T12:32:47;10.80;85.20
39493;DHT22;25176;51.060;3.720;2024-03-08T12:35:13;10.80;85.30
39493;DHT22;25176;51.060;3.720;2024-03-08T12:37:39;10.90;85.50
39493;DHT22;25176;51.060;3.720;2024-03-08T12:40:07;10.90;85.30
39493;DHT22;25176;51.060;3.720;2024-03-08T12:42:33;10.70;85.50
39493;DHT22;25176;51.060;3.720;2024-03-08T12:44:59;10.70;85.50
39493;DHT22;25176;51.060;3.720;2024-03-08T12:47:26;10.70;85.40
39493;DHT22;25176;51.060;3.720;2024-03-08T12:49:54;10.70;85.60
39493;DHT22;25176;51.060;3.720;2024-03-08T12:52:20;10.90;86.00
39493;DHT22;25176;51.060;3.720;2024-03-08T12:54:45;10.90;85.00
39493;DHT22;25176;51.060;3.720;2024-03-08T12:57:12;10.90;85.10
39493;DHT22;25176;51.060;3.720;2024-03-08T12:59:39;10.90;85.20
39493;DHT22;25176;51.060;3.720;2024-03-08T13:02:04;11.00;86.10
39493;DHT22;25176;51.060;3.720;2024-03-08T13:04:36;11.10;85.60
39493;DHT22;25176;51.060;3.720;2024-03-08T13:07:02;11.30;85.20
39493;DHT22;25176;51.060;3.720;2024-03-08T13:09:27;11.30;84.70
39493;DHT22;25176;51.060;3.720;2024-03-08T13:11:55;11.30;84.60
39493;DHT22;25176;51.060;3.720;2024-03-08T13:14:26;11.30;84.50
39493;DHT22;25176;51.060;3.720;2024-03-08T13:16:51;11.30;85.00
39493;DHT22;25176;51.060;3.720;2024-03-08T13:19:17;11.30;84.70
39493;DHT22;25176;51.060;3.720;2024-03-08T13:21:42;11.40;84.70
39493;DHT22;25176;51.060;3.720;2024-03-08T13:24:08;11.30;84.80
39493;DHT22;25176;51.060;3.720;2024-03-08T13:26:34;11.30;84.60
39493;DHT22;25176;51.060;3.720;2024-03-08T13:29:00;11.20;85.00
39493;DHT22;25176;51.060;3.720;2024-03-08T13:31:25;11.30;84.60
39493;DHT22;25176;51.060;3.720;2024-03-08T13:33:51;11.30;84.40
39493;DHT22;25176;51.060;3.720;2024-03-08T13:36:23;11.30;84.50
39493;DHT22;25176;51.060;3.720;2024-03-08T13:38:51;11.30;84.50
39493;DHT22;25176;51.060;3.720;2024-03-08T13:41:17;11.40;84.70
39493;DHT22;25176;51.060;3.720;2024-03-08T13:43:46;11.40;84.60
39493;DHT22;25176;51.060;3.720;2024-03-08T13:46:12;11.40;84.50
39493;DHT22;25176;51.060;3.720;2024-03-08T13:48:37;11.40;83.90
39493;DHT22;25176;51.060;3.720;2024-03-08T13:51:06;11.40;84.60
39493;DHT22;25176;51.060;3.720;2024-03-08T13:53:32;11.50;84.60
39493;DHT22;25176;51.060;3.720;2024-03-08T13:56:00;11.50;84.00
39493;DHT22;25176;51.060;3.720;2024-03-08T13:58:26;11.50;84.10
39493;DHT22;25176;51.060;3.720;2024-03-08T14:00:52;11.60;84.30
39493;DHT22;25176;51.060;3.720;2024-03-08T14:03:18;11.50;83.40
39493;DHT22;25176;51.060;3.720;2024-03-08T14:05:43;11.50;83.90
39493;DHT22;25176;51.060;3.720;2024-03-08T14:08:10;11.50;83.90
39493;DHT22;25176;51.060;3.720;2024-03-08T14:10:37;11.50;83.40
39493;DHT22;25176;51.060;3.720;2024-03-08T14:13:03;11.50;83.40
39493;DHT22;25176;51.060;3.720;2024-03-08T14:15:33;11.60;83.70
39493;DHT22;25176;51.060;3.720;2024-03-08T14:18:00;11.60;83.50
39493;DHT22;25176;51.060;3.720;2024-03-08T14:20:26;11.70;84.40
39493;DHT22;25176;51.060;3.720;2024-03-08T14:22:55;11.70;83.30
39493;DHT22;25176;51.060;3.720;2024-03-08T14:25:22;11.70;83.40
39493;DHT22;25176;51.060;3.720;2024-03-08T14:27:51;11.80;83.60
39493;DHT22;25176;51.060;3.720;2024-03-08T14:30:23;11.90;83.80
39493;DHT22;25176;51.060;3.720;2024-03-08T14:33:04;11.90;83.00
39493;DHT22;25176;51.060;3.720;2024-03-08T14:35:39;11.90;83.60
39493;DHT22;25176;51.060;3.720;2024-03-08T14:38:15;11.90;83.70
39493;DHT22;25176;51.060;3.720;2024-03-08T14:40:42;11.90;83.00
39493;DHT22;25176;51.060;3.720;2024-03-08T14:43:12;11.90;83.40
39493;DHT22;25176;51.060;3.720;2024-03-08T14:45:39;11.90;83.20
39493;DHT22;25176;51.060;3.720;2024-03-08T14:48:06;11.90;84.30
39493;DHT22;25176;51.060;3.720;2024-03-08T14:50:35;12.00;83.40
39493;DHT22;25176;51.060;3.720;2024-03-08T14:53:02;12.00;83.20
39493;DHT22;25176;51.060;3.720;2024-03-08T14:55:31;12.00;83.10
39493;DHT22;25176;51.060;3.720;2024-03-08T14:58:02;12.00;82.90
39493;DHT22;25176;51.060;3.720;2024-03-08T15:00:29;12.00;82.90
39493;DHT22;25176;51.060;3.720;2024-03-08T15:03:03;11.90;82.40
39493;DHT22;25176;51.060;3.720;2024-03-08T15:05:30;11.80;82.40
39493;DHT22;25176;51.060;3.720;2024-03-08T15:07:57;11.90;82.90
39493;DHT22;25176;51.060;3.720;2024-03-08T15:13:29;11.90;82.80
39493;DHT22;25176;51.060;3.720;2024-03-08T15:16:07;11.90;83.10
39493;DHT22;25176;51.060;3.720;2024-03-08T15:18:33;11.90;82.90
39493;DHT22;25176;51.060;3.720;2024-03-08T15:21:06;11.90;82.40
39493;DHT22;25176;51.060;3.720;2024-03-08T15:23:34;12.00;83.30
39493;DHT22;25176;51.060;3.720;2024-03-08T15:26:00;12.00;83.30
39493;DHT22;25176;51.060;3.720;2024-03-08T15:28:26;12.00;83.10
39493;DHT22;25176;51.060;3.720;2024-03-08T15:31:04;12.00;83.10
39493;DHT22;25176;51.060;3.720;2024-03-08T15:33:34;12.10;83.00
39493;DHT22;25176;51.060;3.720;2024-03-08T15:36:00;12.10;82.90
39493;DHT22;25176;51.060;3.720;2024-03-08T15:38:35;12.10;83.30
39493;DHT22;25176;51.060;3.720;2024-03-08T15:41:00;12.10;83.20
39493;DHT22;25176;51.060;3.720;2024-03-08T15:43:26;12.10;83.40
39493;DHT22;25176;51.060;3.720;2024-03-08T15:45:52;12.10;82.80
39493;DHT22;25176;51.060;3.720;2024-03-08T15:48:17;12.10;83.60
39493;DHT22;25176;51.060;3.720;2024-03-08T15:50:43;12.10;83.60